createdAt,value
2023-02-11T00:07:46.889Z,37.63
2023-02-11T00:17:50.341Z,35.50
2023-02-11T00:27:54.560Z,26.60
2023-02-11T00:38:01.223Z,26.23
2023-02-11T00:48:06.227Z,18.13
2023-02-11T00:58:08.789Z,18.53
2023-02-11T01:08:13.443Z,20.10
2023-02-11T01:18:15.528Z,26.40
2023-02-11T01:28:27.536Z,20.83
2023-02-11T01:38:32.620Z,23.93
2023-02-11T01:48:40.214Z,27.67
2023-02-11T01:58:44.664Z,19.70
2023-02-11T02:08:57.529Z,27.90
2023-02-11T02:19:25.702Z,25.13
2023-02-11T02:29:33.724Z,25.27
2023-02-11T02:39:36.894Z,27.30
2023-02-11T02:49:41.301Z,24.97
2023-02-11T03:00:07.166Z,17.10
2023-02-11T03:10:17.339Z,22.57
2023-02-11T03:20:20.713Z,30.93
2023-02-11T03:30:28.955Z,22.77
2023-02-11T03:40:35.953Z,21.03
2023-02-11T03:50:39.301Z,18.43
2023-02-11T04:00:45.719Z,22.93
2023-02-11T04:10:47.829Z,20.47
2023-02-11T04:20:52.452Z,21.30
2023-02-11T04:30:58.118Z,22.93
2023-02-11T04:41:04.970Z,25.57
2023-02-11T04:51:07.080Z,16.37
2023-02-11T05:01:19.062Z,28.63
2023-02-11T05:11:23.461Z,30.93
2023-02-11T05:21:30.475Z,21.90
2023-02-11T05:31:34.552Z,22.67
2023-02-11T05:41:39.394Z,26.77
2023-02-11T05:51:44.512Z,26.67
2023-02-11T06:01:46.746Z,26.77
2023-02-11T06:11:48.809Z,27.97
2023-02-11T06:21:50.876Z,20.17
2023-02-11T06:31:55.636Z,30.50
2023-02-11T06:41:57.775Z,32.27
2023-02-11T06:52:06.768Z,29.67
2023-02-11T07:02:14.301Z,25.63
2023-02-11T07:12:20.130Z,29.43
2023-02-11T07:22:22.217Z,33.70
2023-02-11T07:32:24.234Z,34.37
2023-02-11T07:42:27.917Z,28.60
2023-02-11T07:52:31.169Z,36.43
2023-02-11T08:02:35.761Z,40.07
2023-02-11T08:12:38.055Z,32.00
2023-02-11T08:22:40.539Z,43.73
2023-02-11T08:32:42.635Z,43.87
2023-02-11T08:42:44.820Z,35.63
2023-02-11T08:52:47.673Z,35.17
2023-02-11T09:02:55.487Z,24.03
2023-02-11T09:13:01.097Z,49.67
2023-02-11T09:23:09.738Z,34.67
2023-02-11T09:33:11.901Z,37.10
2023-02-11T09:43:23.274Z,41.03
2023-02-11T09:53:43.070Z,35.60
2023-02-11T10:04:04.264Z,35.37
2023-02-11T10:14:19.882Z,34.77
2023-02-11T10:24:24.288Z,39.60
2023-02-11T10:34:26.558Z,31.20
2023-02-11T10:44:39.631Z,47.97
2023-02-11T10:54:41.840Z,39.20
2023-02-11T11:04:50.102Z,45.10
2023-02-11T11:15:11.534Z,60.57
2023-02-11T11:25:29.654Z,59.73
2023-02-11T11:35:34.501Z,57.90
2023-02-11T11:45:37.837Z,60.50
2023-02-11T11:55:58.602Z,48.70
2023-02-11T12:06:11.088Z,52.10
2023-02-11T12:16:24.290Z,67.13
2023-02-11T12:26:33.369Z,36.83
2023-02-11T12:36:55.816Z,53.07
2023-02-11T12:47:24.963Z,64.77
2023-02-11T12:57:32.557Z,51.33
2023-02-11T13:07:43.839Z,37.83
2023-02-11T13:18:03.000Z,59.63
2023-02-11T13:28:20.367Z,64.80
2023-02-11T13:38:26.049Z,60.80
2023-02-11T13:48:35.421Z,58.07
2023-02-11T13:58:47.790Z,68.70
2023-02-11T14:09:09.611Z,70.70
2023-02-11T14:19:12.473Z,70.40
2023-02-11T14:29:29.051Z,56.33
2023-02-11T14:39:54.966Z,51.80
2023-02-11T14:49:57.467Z,50.47
2023-02-11T15:00:10.431Z,67.47
2023-02-11T15:10:31.808Z,67.30
2023-02-11T15:20:37.428Z,48.23
2023-02-11T15:30:39.533Z,62.93
2023-02-11T15:40:54.308Z,55.73
2023-02-11T15:51:01.488Z,56.43
2023-02-11T16:01:09.026Z,40.97
2023-02-11T16:11:26.742Z,61.43
2023-02-11T16:21:39.561Z,51.70
2023-02-11T16:31:47.954Z,45.50
2023-02-11T16:41:54.530Z,49.13
2023-02-11T16:52:01.470Z,46.47
2023-02-11T17:02:04.773Z,43.63
2023-02-11T17:12:08.283Z,46.73
2023-02-11T17:22:14.938Z,49.20
2023-02-11T17:32:17.281Z,39.63
2023-02-11T17:42:19.618Z,38.17
2023-02-11T17:52:27.831Z,34.13
2023-02-11T18:02:30.418Z,33.60
2023-02-11T18:12:34.122Z,30.43
2023-02-11T18:22:41.051Z,28.60
2023-02-11T18:32:43.273Z,26.27
2023-02-11T18:42:50.123Z,22.13
2023-02-11T18:52:57.103Z,22.47
2023-02-11T19:03:01.653Z,27.43
2023-02-11T19:13:06.206Z,23.70
2023-02-11T19:23:11.385Z,20.40
2023-02-11T19:33:20.814Z,20.93
2023-02-11T19:43:27.845Z,22.80
2023-02-11T19:53:30.002Z,21.57
2023-02-11T20:03:34.315Z,19.43
2023-02-11T20:13:39.656Z,19.10
2023-02-11T20:23:47.462Z,17.30
2023-02-11T20:33:49.546Z,20.17
2023-02-11T20:43:53.877Z,18.00
2023-02-11T20:53:59.475Z,20.73
2023-02-11T21:04:09.444Z,19.97
2023-02-11T21:14:14.193Z,21.57
2023-02-11T21:24:16.340Z,21.43
2023-02-11T21:34:20.319Z,6.67
2023-02-11T21:44:27.202Z,6.63
2023-02-11T21:54:33.820Z,4.90
2023-02-11T22:04:38.325Z,5.57
2023-02-11T22:14:43.083Z,3.33
2023-02-11T22:24:47.662Z,6.43
2023-02-11T22:34:53.524Z,3.43
2023-02-11T22:44:58.221Z,4.90
2023-02-11T22:55:01.012Z,2.70
2023-02-11T23:05:03.431Z,3.13
2023-02-11T23:15:06.361Z,2.70
2023-02-11T23:25:08.858Z,4.67
2023-02-11T23:35:11.068Z,2.27
2023-02-11T23:45:19.047Z,3.97
2023-02-11T23:55:21.139Z,2.07
